sensor_id;sensor_type;location;lat;lon;timestamp;pressure;altitude;pressure_sealevel;temperature;humidity
40089;BME280;25793;55.706;13.186;2022-12-05T00:03:53;101788.97;;;4.27;79.13
40089;BME280;25793;55.706;13.186;2022-12-05T00:06:21;101799.28;;;4.29;78.56
40089;BME280;25793;55.706;13.186;2022-12-05T00:08:48;101792.34;;;4.34;78.71
40089;BME280;25793;55.706;13.186;2022-12-05T00:11:17;101787.28;;;4.28;78.75
40089;BME280;25793;55.706;13.186;2022-12-05T00:13:45;101772.66;;;4.30;78.41
40089;BME280;25793;55.706;13.186;2022-12-05T00:16:18;101771.78;;;4.31;78.34
40089;BME280;25793;55.706;13.186;2022-12-05T00:18:45;101776.97;;;4.26;78.32
40089;BME280;25793;55.706;13.186;2022-12-05T00:21:19;101767.53;;;4.25;78.54
40089;BME280;25793;55.706;13.186;2022-12-05T00:23:47;101754.69;;;4.24;78.89
40089;BME280;25793;55.706;13.186;2022-12-05T00:26:14;101757.25;;;4.25;78.93
40089;BME280;25793;55.706;13.186;2022-12-05T00:28:41;101760.69;;;4.24;78.58
40089;BME280;25793;55.706;13.186;2022-12-05T00:31:11;101758.16;;;4.21;78.71
40089;BME280;25793;55.706;13.186;2022-12-05T00:33:38;101759.03;;;4.20;79.21
40089;BME280;25793;55.706;13.186;2022-12-05T00:36:26;101758.06;;;4.27;78.46
40089;BME280;25793;55.706;13.186;2022-12-05T00:38:54;101755.44;;;4.30;78.26
40089;BME280;25793;55.706;13.186;2022-12-05T00:41:23;101753.69;;;4.34;78.19
40089;BME280;25793;55.706;13.186;2022-12-05T00:43:51;101757.16;;;4.33;78.25
40089;BME280;25793;55.706;13.186;2022-12-05T00:46:23;101754.50;;;4.36;78.82
40089;BME280;25793;55.706;13.186;2022-12-05T00:48:55;101762.13;;;4.44;78.55
40089;BME280;25793;55.706;13.186;2022-12-05T00:51:25;101744.16;;;4.41;77.91
40089;BME280;25793;55.706;13.186;2022-12-05T00:53:57;101755.34;;;4.38;78.44
40089;BME280;25793;55.706;13.186;2022-12-05T00:56:25;101740.03;;;4.29;78.64
40089;BME280;25793;55.706;13.186;2022-12-05T00:58:53;101749.50;;;4.27;78.52
40089;BME280;25793;55.706;13.186;2022-12-05T01:01:23;101747.66;;;4.37;78.48
40089;BME280;25793;55.706;13.186;2022-12-05T01:03:52;101742.44;;;4.38;78.04
40089;BME280;25793;55.706;13.186;2022-12-05T01:06:21;101733.84;;;4.39;78.53
40089;BME280;25793;55.706;13.186;2022-12-05T01:08:48;101727.06;;;4.35;78.47
40089;BME280;25793;55.706;13.186;2022-12-05T01:11:17;101732.16;;;4.38;78.85
40089;BME280;25793;55.706;13.186;2022-12-05T01:13:44;101735.63;;;4.36;78.09
40089;BME280;25793;55.706;13.186;2022-12-05T01:16:21;101731.38;;;4.35;79.10
40089;BME280;25793;55.706;13.186;2022-12-05T01:18:48;101736.47;;;4.38;78.53
40089;BME280;25793;55.706;13.186;2022-12-05T01:21:15;101735.63;;;4.36;78.69
40089;BME280;25793;55.706;13.186;2022-12-05T01:23:42;101730.41;;;4.40;78.88
40089;BME280;25793;55.706;13.186;2022-12-05T01:26:12;101723.63;;;4.35;78.60
40089;BME280;25793;55.706;13.186;2022-12-05T01:28:40;101731.31;;;4.36;78.56
40089;BME280;25793;55.706;13.186;2022-12-05T01:31:28;101726.91;;;4.46;78.86
40089;BME280;25793;55.706;13.186;2022-12-05T01:33:57;101730.31;;;4.46;78.41
40089;BME280;25793;55.706;13.186;2022-12-05T01:36:25;101729.53;;;4.43;78.39
40089;BME280;25793;55.706;13.186;2022-12-05T01:38:52;101725.94;;;4.52;78.57
40089;BME280;25793;55.706;13.186;2022-12-05T01:41:27;101724.19;;;4.54;78.22
40089;BME280;25793;55.706;13.186;2022-12-05T01:44:03;101732.00;;;4.49;78.31
40089;BME280;25793;55.706;13.186;2022-12-05T01:46:44;101721.72;;;4.47;78.65
40089;BME280;25793;55.706;13.186;2022-12-05T01:49:15;101718.22;;;4.53;78.67
40089;BME280;25793;55.706;13.186;2022-12-05T01:51:51;101724.28;;;4.49;79.03
40089;BME280;25793;55.706;13.186;2022-12-05T01:54:21;101707.16;;;4.45;79.44
40089;BME280;25793;55.706;13.186;2022-12-05T01:56:51;101710.63;;;4.44;79.27
40089;BME280;25793;55.706;13.186;2022-12-05T01:59:21;101698.53;;;4.49;79.09
40089;BME280;25793;55.706;13.186;2022-12-05T02:01:49;101697.59;;;4.52;79.31
40089;BME280;25793;55.706;13.186;2022-12-05T02:04:16;101699.31;;;4.53;79.16
40089;BME280;25793;55.706;13.186;2022-12-05T02:06:43;101688.19;;;4.51;78.93
40089;BME280;25793;55.706;13.186;2022-12-05T02:09:10;101693.38;;;4.49;78.89
40089;BME280;25793;55.706;13.186;2022-12-05T02:11:54;101706.94;;;4.57;79.09
40089;BME280;25793;55.706;13.186;2022-12-05T02:14:32;101705.31;;;4.53;78.80
40089;BME280;25793;55.706;13.186;2022-12-05T02:31:21;101694.03;;;4.60;79.57
40089;BME280;25793;55.706;13.186;2022-12-05T02:36:23;101675.94;;;4.65;79.61
40089;BME280;25793;55.706;13.186;2022-12-05T02:41:31;101686.88;;;4.78;79.30
40089;BME280;25793;55.706;13.186;2022-12-05T02:46:42;101686.91;;;4.75;79.54
40089;BME280;25793;55.706;13.186;2022-12-05T02:49:15;101692.91;;;4.75;79.20
40089;BME280;25793;55.706;13.186;2022-12-05T02:51:47;101680.97;;;4.71;79.56
40089;BME280;25793;55.706;13.186;2022-12-05T02:54:19;101672.38;;;4.72;79.58
40089;BME280;25793;55.706;13.186;2022-12-05T02:56:47;101671.56;;;4.69;79.80
40089;BME280;25793;55.706;13.186;2022-12-05T02:59:14;101674.13;;;4.69;80.53
40089;BME280;25793;55.706;13.186;2022-12-05T03:01:48;101675.72;;;4.76;80.16
40089;BME280;25793;55.706;13.186;2022-12-05T03:04:16;101669.66;;;4.80;79.67
40089;BME280;25793;55.706;13.186;2022-12-05T03:06:58;101681.63;;;4.83;79.74
40089;BME280;25793;55.706;13.186;2022-12-05T03:09:32;101684.97;;;4.88;79.98
40089;BME280;25793;55.706;13.186;2022-12-05T03:12:09;101681.47;;;4.92;80.26
40089;BME280;25793;55.706;13.186;2022-12-05T03:14:46;101681.41;;;4.95;79.38
40089;BME280;25793;55.706;13.186;2022-12-05T03:17:17;101687.59;;;4.85;79.80
40089;BME280;25793;55.706;13.186;2022-12-05T03:22:41;101696.88;;;4.95;79.39
40089;BME280;25793;55.706;13.186;2022-12-05T03:25:11;101686.56;;;4.95;79.87
40089;BME280;25793;55.706;13.186;2022-12-05T03:27:46;101683.16;;;4.93;79.60
40089;BME280;25793;55.706;13.186;2022-12-05T03:30:17;101683.94;;;4.97;79.75
40089;BME280;25793;55.706;13.186;2022-12-05T03:35:41;101678.72;;;5.00;79.55
40089;BME280;25793;55.706;13.186;2022-12-05T03:38:12;101679.59;;;5.00;79.90
40089;BME280;25793;55.706;13.186;2022-12-05T03:46:08;101674.44;;;5.00;80.02
40089;BME280;25793;55.706;13.186;2022-12-05T03:54:32;101678.69;;;5.03;79.49
40089;BME280;25793;55.706;13.186;2022-12-05T03:59:43;101687.03;;;5.16;78.69
40089;BME280;25793;55.706;13.186;2022-12-05T04:02:24;101688.88;;;5.11;78.55
40089;BME280;25793;55.706;13.186;2022-12-05T04:04:56;101685.25;;;5.19;78.85
40089;BME280;25793;55.706;13.186;2022-12-05T04:07:26;101677.41;;;5.24;78.68
40089;BME280;25793;55.706;13.186;2022-12-05T04:10:02;101686.13;;;5.18;78.38
40089;BME280;25793;55.706;13.186;2022-12-05T04:12:32;101676.69;;;5.17;78.47
40089;BME280;25793;55.706;13.186;2022-12-05T04:15:10;101679.22;;;5.19;78.48
40089;BME280;25793;55.706;13.186;2022-12-05T04:17:56;101679.16;;;5.24;78.39
40089;BME280;25793;55.706;13.186;2022-12-05T04:23:13;101682.84;;;5.10;79.08
40089;BME280;25793;55.706;13.186;2022-12-05T04:26:08;101681.91;;;5.14;78.40
40089;BME280;25793;55.706;13.186;2022-12-05T04:28:48;101668.34;;;5.04;78.55
40089;BME280;25793;55.706;13.186;2022-12-05T04:31:23;101673.53;;;5.03;78.67
40089;BME280;25793;55.706;13.186;2022-12-05T04:33:54;101672.47;;;5.12;78.60
40089;BME280;25793;55.706;13.186;2022-12-05T04:39:10;101673.22;;;5.18;78.37
40089;BME280;25793;55.706;13.186;2022-12-05T04:41:47;101670.66;;;5.18;78.86
40089;BME280;25793;55.706;13.186;2022-12-05T04:44:18;101668.91;;;5.20;78.13
40089;BME280;25793;55.706;13.186;2022-12-05T04:46:48;101671.50;;;5.19;78.22
40089;BME280;25793;55.706;13.186;2022-12-05T04:49:22;101667.47;;;5.04;78.17
40089;BME280;25793;55.706;13.186;2022-12-05T04:51:53;101668.34;;;5.04;78.29
40089;BME280;25793;55.706;13.186;2022-12-05T04:54:28;101667.59;;;4.98;78.77
40089;BME280;25793;55.706;13.186;2022-12-05T04:57:04;101675.31;;;4.98;78.70
40089;BME280;25793;55.706;13.186;2022-12-05T04:59:33;101674.50;;;4.96;78.56
40089;BME280;25793;55.706;13.186;2022-12-05T05:02:07;101675.28;;;5.01;78.49
40089;BME280;25793;55.706;13.186;2022-12-05T05:04:44;101661.53;;;5.00;78.31
40089;BME280;25793;55.706;13.186;2022-12-05T05:07:13;101674.53;;;4.94;78.44
40089;BME280;25793;55.706;13.186;2022-12-05T05:09:40;101665.94;;;4.93;78.04
40089;BME280;25793;55.706;13.186;2022-12-05T05:12:07;101674.50;;;4.96;78.35
40089;BME280;25793;55.706;13.186;2022-12-05T05:14:34;101668.47;;;4.98;78.00
40089;BME280;25793;55.706;13.186;2022-12-05T05:17:01;101664.34;;;4.89;78.29
40089;BME280;25793;55.706;13.186;2022-12-05T05:19:28;101654.09;;;4.85;78.42
40089;BME280;25793;55.706;13.186;2022-12-05T05:21:55;101649.03;;;4.80;77.62
40089;BME280;25793;55.706;13.186;2022-12-05T05:24:22;101646.47;;;4.78;77.32
40089;BME280;25793;55.706;13.186;2022-12-05T05:26:49;101637.94;;;4.75;77.58
40089;BME280;25793;55.706;13.186;2022-12-05T05:29:22;101654.34;;;4.71;77.75
40089;BME280;25793;55.706;13.186;2022-12-05T05:31:49;101651.81;;;4.69;77.17
40089;BME280;25793;55.706;13.186;2022-12-05T05:34:16;101638.19;;;4.61;77.86
40089;BME280;25793;55.706;13.186;2022-12-05T05:36:43;101640.47;;;4.78;77.67
40089;BME280;25793;55.706;13.186;2022-12-05T05:39:12;101648.19;;;4.78;77.13
40089;BME280;25793;55.706;13.186;2022-12-05T05:41:41;101646.31;;;4.88;77.03
40089;BME280;25793;55.706;13.186;2022-12-05T05:44:08;101640.38;;;4.84;77.43
40089;BME280;25793;55.706;13.186;2022-12-05T05:46:35;101649.13;;;4.74;77.22
40089;BME280;25793;55.706;13.186;2022-12-05T05:49:02;101630.22;;;4.73;77.24
40089;BME280;25793;55.706;13.186;2022-12-05T05:51:29;101644.03;;;4.71;77.45
40089;BME280;25793;55.706;13.186;2022-12-05T05:53:57;101637.94;;;4.75;76.71
40089;BME280;25793;55.706;13.186;2022-12-05T05:56:24;101636.22;;;4.75;76.82
40089;BME280;25793;55.706;13.186;2022-12-05T05:59:08;101638.81;;;4.74;77.00
40089;BME280;25793;55.706;13.186;2022-12-05T06:01:35;101642.28;;;4.73;77.17
40089;BME280;25793;55.706;13.186;2022-12-05T06:04:02;101637.28;;;4.65;76.69
40089;BME280;25793;55.706;13.186;2022-12-05T06:06:29;101628.66;;;4.66;77.00
40089;BME280;25793;55.706;13.186;2022-12-05T06:08:55;101635.53;;;4.66;76.93
40089;BME280;25793;55.706;13.186;2022-12-05T06:11:24;101626.00;;;4.71;76.55
40089;BME280;25793;55.706;13.186;2022-12-05T06:13:57;101642.31;;;4.71;76.79
40089;BME280;25793;55.706;13.186;2022-12-05T06:16:27;101641.44;;;4.72;76.25
40089;BME280;25793;55.706;13.186;2022-12-05T06:18:54;101638.09;;;4.67;76.88
40089;BME280;25793;55.706;13.186;2022-12-05T06:21:21;101642.22;;;4.76;76.69
40089;BME280;25793;55.706;13.186;2022-12-05T06:23:48;101625.22;;;4.66;76.84
40089;BME280;25793;55.706;13.186;2022-12-05T06:26:17;101626.91;;;4.68;77.03
40089;BME280;25793;55.706;13.186;2022-12-05T06:28:44;101637.97;;;4.73;77.16
40089;BME280;25793;55.706;13.186;2022-12-05T06:31:17;101643.25;;;4.67;76.88
40089;BME280;25793;55.706;13.186;2022-12-05T06:33:45;101644.19;;;4.61;76.82
40089;BME280;25793;55.706;13.186;2022-12-05T06:36:17;101644.38;;;4.52;76.88
40089;BME280;25793;55.706;13.186;2022-12-05T06:38:44;101641.66;;;4.60;76.14
40089;BME280;25793;55.706;13.186;2022-12-05T06:41:14;101636.41;;;4.65;76.48
40089;BME280;25793;55.706;13.186;2022-12-05T06:43:41;101638.22;;;4.59;76.32
40089;BME280;25793;55.706;13.186;2022-12-05T06:46:10;101627.06;;;4.59;76.54
40089;BME280;25793;55.706;13.186;2022-12-05T06:48:37;101633.16;;;4.55;75.94
40089;BME280;25793;55.706;13.186;2022-12-05T06:51:04;101627.06;;;4.57;76.02
40089;BME280;25793;55.706;13.186;2022-12-05T06:53:32;101633.97;;;4.57;75.89
40089;BME280;25793;55.706;13.186;2022-12-05T06:56:03;101636.50;;;4.58;76.02
40089;BME280;25793;55.706;13.186;2022-12-05T06:58:30;101645.22;;;4.53;76.22
40089;BME280;25793;55.706;13.186;2022-12-05T07:00:57;101637.53;;;4.51;76.47
40089;BME280;25793;55.706;13.186;2022-12-05T07:03:42;101629.72;;;4.54;75.93
40089;BME280;25793;55.706;13.186;2022-12-05T07:06:10;101619.53;;;4.46;75.82
40089;BME280;25793;55.706;13.186;2022-12-05T07:08:36;101641.03;;;4.47;75.95
40089;BME280;25793;55.706;13.186;2022-12-05T07:11:03;101625.56;;;4.45;76.16
40089;BME280;25793;55.706;13.186;2022-12-05T07:13:30;101629.91;;;4.43;76.31
40089;BME280;25793;55.706;13.186;2022-12-05T07:15:57;101630.03;;;4.36;76.82
40089;BME280;25793;55.706;13.186;2022-12-05T07:18:26;101634.53;;;4.23;76.41
40089;BME280;25793;55.706;13.186;2022-12-05T07:21:01;101637.13;;;4.21;76.46
40089;BME280;25793;55.706;13.186;2022-12-05T07:23:38;101630.28;;;4.22;76.14
40089;BME280;25793;55.706;13.186;2022-12-05T07:26:06;101639.00;;;4.13;76.84
40089;BME280;25793;55.706;13.186;2022-12-05T07:28:34;101629.66;;;4.06;77.40
40089;BME280;25793;55.706;13.186;2022-12-05T07:31:08;101628.84;;;4.02;77.14
40089;BME280;25793;55.706;13.186;2022-12-05T07:33:36;101632.41;;;3.95;77.57
40089;BME280;25793;55.706;13.186;2022-12-05T07:36:05;101641.00;;;3.92;77.62
40089;BME280;25793;55.706;13.186;2022-12-05T07:38:32;101632.41;;;3.93;77.29
40089;BME280;25793;55.706;13.186;2022-12-05T07:41:03;101628.97;;;3.94;77.60
40089;BME280;25793;55.706;13.186;2022-12-05T07:43:37;101618.84;;;3.83;77.69
40089;BME280;25793;55.706;13.186;2022-12-05T07:46:05;101630.09;;;3.76;77.36
40089;BME280;25793;55.706;13.186;2022-12-05T07:48:32;101624.91;;;3.79;77.91
40089;BME280;25793;55.706;13.186;2022-12-05T07:51:00;101624.22;;;3.66;77.85
40089;BME280;25793;55.706;13.186;2022-12-05T07:53:28;101625.13;;;3.62;78.06
40089;BME280;25793;55.706;13.186;2022-12-05T07:56:01;101637.09;;;3.65;78.72
40089;BME280;25793;55.706;13.186;2022-12-05T07:58:29;101639.78;;;3.58;78.82
40089;BME280;25793;55.706;13.186;2022-12-05T08:00:56;101628.75;;;3.50;78.56
40089;BME280;25793;55.706;13.186;2022-12-05T08:03:24;101621.81;;;3.54;78.53
40089;BME280;25793;55.706;13.186;2022-12-05T08:05:50;101621.81;;;3.55;78.80
40089;BME280;25793;55.706;13.186;2022-12-05T08:08:17;101621.94;;;3.46;79.16
40089;BME280;25793;55.706;13.186;2022-12-05T08:10:44;101636.41;;;3.52;78.66
40089;BME280;25793;55.706;13.186;2022-12-05T08:13:10;101629.56;;;3.51;79.48
40089;BME280;25793;55.706;13.186;2022-12-05T08:15:37;101627.88;;;3.50;78.43
40089;BME280;25793;55.706;13.186;2022-12-05T08:18:04;101626.28;;;3.41;78.62
40089;BME280;25793;55.706;13.186;2022-12-05T08:20:30;101620.44;;;3.28;80.09
40089;BME280;25793;55.706;13.186;2022-12-05T08:22:57;101617.06;;;3.23;80.06
40089;BME280;25793;55.706;13.186;2022-12-05T08:25:23;101619.56;;;3.27;80.39
40089;BME280;25793;55.706;13.186;2022-12-05T08:27:50;101619.66;;;3.23;79.62
40089;BME280;25793;55.706;13.186;2022-12-05T08:30:17;101628.00;;;3.39;81.13
40089;BME280;25793;55.706;13.186;2022-12-05T08:32:44;101626.97;;;3.54;81.04
40089;BME280;25793;55.706;13.186;2022-12-05T08:35:10;101620.13;;;3.53;80.08
40089;BME280;25793;55.706;13.186;2022-12-05T08:37:37;101613.34;;;3.46;80.32
40089;BME280;25793;55.706;13.186;2022-12-05T08:40:04;101627.16;;;3.40;79.45
40089;BME280;25793;55.706;13.186;2022-12-05T08:42:31;101627.16;;;3.40;79.50
40089;BME280;25793;55.706;13.186;2022-12-05T08:45:00;101625.44;;;3.40;80.34
40089;BME280;25793;55.706;13.186;2022-12-05T08:47:27;101629.75;;;3.38;80.29
40089;BME280;25793;55.706;13.186;2022-12-05T08:49:57;101638.31;;;3.39;80.43
40089;BME280;25793;55.706;13.186;2022-12-05T08:52:24;101627.94;;;3.43;80.42
40089;BME280;25793;55.706;13.186;2022-12-05T08:54:51;101633.88;;;3.50;80.63
40089;BME280;25793;55.706;13.186;2022-12-05T08:57:17;101644.16;;;3.50;79.96
40089;BME280;25793;55.706;13.186;2022-12-05T08:59:44;101629.78;;;3.35;80.33
40089;BME280;25793;55.706;13.186;2022-12-05T09:02:11;101625.53;;;3.31;80.56
40089;BME280;25793;55.706;13.186;2022-12-05T09:04:41;101637.47;;;3.37;80.88
40089;BME280;25793;55.706;13.186;2022-12-05T09:07:19;101632.44;;;3.27;81.07
40089;BME280;25793;55.706;13.186;2022-12-05T09:09:45;101637.47;;;3.38;81.40
40089;BME280;25793;55.706;13.186;2022-12-05T09:12:12;101640.81;;;3.43;81.41
40089;BME280;25793;55.706;13.186;2022-12-05T09:14:40;101628.81;;;3.42;81.19
40089;BME280;25793;55.706;13.186;2022-12-05T09:17:06;101639.97;;;3.43;81.63
40089;BME280;25793;55.706;13.186;2022-12-05T09:19:33;101643.38;;;3.45;81.59
40089;BME280;25793;55.706;13.186;2022-12-05T09:22:00;101642.50;;;3.46;81.10
40089;BME280;25793;55.706;13.186;2022-12-05T09:27:22;101629.59;;;3.48;81.55
40089;BME280;25793;55.706;13.186;2022-12-05T09:29:49;101624.50;;;3.46;81.57
40089;BME280;25793;55.706;13.186;2022-12-05T09:32:16;101619.31;;;3.49;81.72
40089;BME280;25793;55.706;13.186;2022-12-05T09:34:43;101621.81;;;3.54;82.00
40089;BME280;25793;55.706;13.186;2022-12-05T09:37:10;101624.44;;;3.51;81.86
40089;BME280;25793;55.706;13.186;2022-12-05T09:39:56;101623.41;;;3.63;81.57
40089;BME280;25793;55.706;13.186;2022-12-05T09:42:34;101619.13;;;3.63;82.19
40089;BME280;25793;55.706;13.186;2022-12-05T09:51:06;101613.03;;;3.69;82.11
40089;BME280;25793;55.706;13.186;2022-12-05T09:56:32;101616.47;;;3.69;82.20
40089;BME280;25793;55.706;13.186;2022-12-05T09:59:01;101603.63;;;3.68;82.43
40089;BME280;25793;55.706;13.186;2022-12-05T10:13:44;101600.38;;;4.11;81.86
40089;BME280;25793;55.706;13.186;2022-12-05T10:16:22;101593.72;;;3.98;81.84
40089;BME280;25793;55.706;13.186;2022-12-05T10:18:58;101600.47;;;4.07;82.76
40089;BME280;25793;55.706;13.186;2022-12-05T10:21:37;101598.69;;;4.10;82.08
40089;BME280;25793;55.706;13.186;2022-12-05T11:49:16;101505.97;;;4.59;82.46
40089;BME280;25793;55.706;13.186;2022-12-05T12:03:45;101502.91;;;4.40;83.82
40089;BME280;25793;55.706;13.186;2022-12-05T12:17:54;101498.25;;;4.57;83.55
40089;BME280;25793;55.706;13.186;2022-12-05T12:23:06;101484.53;;;4.57;83.79
40089;BME280;25793;55.706;13.186;2022-12-05T12:28:42;101473.72;;;4.82;83.19
40089;BME280;25793;55.706;13.186;2022-12-05T12:33:47;101470.38;;;4.78;83.20
40089;BME280;25793;55.706;13.186;2022-12-05T12:36:27;101476.34;;;4.78;82.79
40089;BME280;25793;55.706;13.186;2022-12-05T12:46:58;101463.34;;;4.86;83.00
40089;BME280;25793;55.706;13.186;2022-12-05T12:49:47;101461.06;;;4.72;83.41
40089;BME280;25793;55.706;13.186;2022-12-05T12:52:22;101457.56;;;4.73;83.05
40089;BME280;25793;55.706;13.186;2022-12-05T13:06:14;101446.03;;;4.51;83.89
40089;BME280;25793;55.706;13.186;2022-12-05T13:11:13;101434.41;;;4.29;84.29
40089;BME280;25793;55.706;13.186;2022-12-05T13:13:49;101433.72;;;4.21;84.03
40089;BME280;25793;55.706;13.186;2022-12-05T13:16:23;101441.66;;;4.10;84.23
40089;BME280;25793;55.706;13.186;2022-12-05T13:18:52;101439.38;;;3.95;83.84
40089;BME280;25793;55.706;13.186;2022-12-05T13:21:21;101428.34;;;3.86;84.60
40089;BME280;25793;55.706;13.186;2022-12-05T13:23:51;101425.75;;;3.88;84.79
40089;BME280;25793;55.706;13.186;2022-12-05T13:26:20;101424.03;;;3.88;84.76
40089;BME280;25793;55.706;13.186;2022-12-05T13:28:58;101423.28;;;3.82;85.08
40089;BME280;25793;55.706;13.186;2022-12-05T13:31:40;101430.84;;;3.91;85.19
40089;BME280;25793;55.706;13.186;2022-12-05T13:36:57;101415.34;;;3.94;84.95
40089;BME280;25793;55.706;13.186;2022-12-05T13:39:51;101412.09;;;3.83;84.89
40089;BME280;25793;55.706;13.186;2022-12-05T13:42:36;101413.91;;;3.79;85.32
40089;BME280;25793;55.706;13.186;2022-12-05T13:53:20;101419.19;;;3.70;85.54
40089;BME280;25793;55.706;13.186;2022-12-05T14:03:59;101415.66;;;3.77;85.71
40089;BME280;25793;55.706;13.186;2022-12-05T14:09:27;101407.72;;;3.88;85.25
40089;BME280;25793;55.706;13.186;2022-12-05T14:17:26;101402.53;;;3.91;85.08
40089;BME280;25793;55.706;13.186;2022-12-05T14:20:30;101398.16;;;3.96;84.73
40089;BME280;25793;55.706;13.186;2022-12-05T17:17:45;101341.47;;;3.54;86.97
40089;BME280;25793;55.706;13.186;2022-12-05T17:20:12;101346.59;;;3.55;86.69
40089;BME280;25793;55.706;13.186;2022-12-05T17:22:39;101339.09;;;3.43;86.59
40089;BME280;25793;55.706;13.186;2022-12-05T17:25:19;101344.28;;;3.40;86.95
40089;BME280;25793;55.706;13.186;2022-12-05T17:27:48;101333.94;;;3.43;87.00
40089;BME280;25793;55.706;13.186;2022-12-05T17:30:15;101332.19;;;3.43;86.79
40089;BME280;25793;55.706;13.186;2022-12-05T17:32:41;101337.34;;;3.43;87.43
40089;BME280;25793;55.706;13.186;2022-12-05T17:35:13;101326.28;;;3.40;87.00
40089;BME280;25793;55.706;13.186;2022-12-05T17:37:40;101335.59;;;3.46;86.92
40089;BME280;25793;55.706;13.186;2022-12-05T17:40:07;101331.16;;;3.54;87.03
40089;BME280;25793;55.706;13.186;2022-12-05T17:42:34;101333.75;;;3.54;86.26
40089;BME280;25793;55.706;13.186;2022-12-05T17:45:01;101339.81;;;3.50;86.61
40089;BME280;25793;55.706;13.186;2022-12-05T17:47:28;101325.09;;;3.58;86.42
40089;BME280;25793;55.706;13.186;2022-12-05T17:49:55;101324.31;;;3.53;86.19
40089;BME280;25793;55.706;13.186;2022-12-05T17:52:22;101328.94;;;3.35;86.52
40089;BME280;25793;55.706;13.186;2022-12-05T17:54:49;101316.19;;;3.27;86.34
40089;BME280;25793;55.706;13.186;2022-12-05T17:57:16;101318.81;;;3.24;86.95
40089;BME280;25793;55.706;13.186;2022-12-05T17:59:42;101310.31;;;3.21;86.88
40089;BME280;25793;55.706;13.186;2022-12-05T18:02:10;101324.63;;;3.36;86.19
40089;BME280;25793;55.706;13.186;2022-12-05T18:04:37;101318.91;;;3.21;86.84
40089;BME280;25793;55.706;13.186;2022-12-05T18:07:04;101323.22;;;3.19;87.08
40089;BME280;25793;55.706;13.186;2022-12-05T18:09:30;101322.50;;;3.11;86.65
40089;BME280;25793;55.706;13.186;2022-12-05T18:11:57;101326.06;;;3.02;86.89
40089;BME280;25793;55.706;13.186;2022-12-05T18:14:23;101319.31;;;2.95;86.32
40089;BME280;25793;55.706;13.186;2022-12-05T18:16:53;101319.28;;;2.96;86.44
40089;BME280;25793;55.706;13.186;2022-12-05T18:19:20;101325.34;;;2.92;86.62
40089;BME280;25793;55.706;13.186;2022-12-05T18:21:46;101317.59;;;2.95;86.64
40089;BME280;25793;55.706;13.186;2022-12-05T18:24:13;101324.47;;;2.93;86.60
40089;BME280;25793;55.706;13.186;2022-12-05T18:26:40;101323.63;;;2.91;85.83
40089;BME280;25793;55.706;13.186;2022-12-05T18:29:07;101325.50;;;2.83;86.73
40089;BME280;25793;55.706;13.186;2022-12-05T18:31:34;101327.25;;;2.79;86.43
40089;BME280;25793;55.706;13.186;2022-12-05T18:34:00;101314.53;;;2.70;86.55
40089;BME280;25793;55.706;13.186;2022-12-05T18:36:27;101326.56;;;2.70;86.66
40089;BME280;25793;55.706;13.186;2022-12-05T18:38:56;101320.47;;;2.75;86.50
40089;BME280;25793;55.706;13.186;2022-12-05T18:41:23;101321.41;;;2.68;86.78
40089;BME280;25793;55.706;13.186;2022-12-05T18:43:52;101318.94;;;2.63;86.42
40089;BME280;25793;55.706;13.186;2022-12-05T18:46:18;101327.41;;;2.68;86.01
40089;BME280;25793;55.706;13.186;2022-12-05T18:48:45;101330.81;;;2.71;86.83
40089;BME280;25793;55.706;13.186;2022-12-05T18:51:18;101326.50;;;2.73;86.68
40089;BME280;25793;55.706;13.186;2022-12-05T18:53:47;101328.22;;;2.72;86.59
40089;BME280;25793;55.706;13.186;2022-12-05T18:56:26;101323.91;;;2.76;86.19
40089;BME280;25793;55.706;13.186;2022-12-05T18:59:03;101328.16;;;2.75;86.06
40089;BME280;25793;55.706;13.186;2022-12-05T19:01:32;101329.03;;;2.76;86.83
40089;BME280;25793;55.706;13.186;2022-12-05T19:04:02;101329.81;;;2.79;86.68
40089;BME280;25793;55.706;13.186;2022-12-05T19:06:31;101322.03;;;2.84;86.57
40089;BME280;25793;55.706;13.186;2022-12-05T19:09:07;101318.75;;;2.76;86.79
40089;BME280;25793;55.706;13.186;2022-12-05T19:11:34;101318.81;;;2.71;86.63
40089;BME280;25793;55.706;13.186;2022-12-05T19:14:02;101312.72;;;2.78;86.58
40089;BME280;25793;55.706;13.186;2022-12-05T19:16:32;101311.09;;;2.73;86.06
40089;BME280;25793;55.706;13.186;2022-12-05T19:19:01;101310.28;;;2.71;86.28
40089;BME280;25793;55.706;13.186;2022-12-05T19:21:30;101303.56;;;2.60;85.59
40089;BME280;25793;55.706;13.186;2022-12-05T19:23:57;101307.88;;;2.58;86.38
40089;BME280;25793;55.706;13.186;2022-12-05T19:26:24;101304.44;;;2.61;85.69
40089;BME280;25793;55.706;13.186;2022-12-05T19:28:51;101305.25;;;2.61;85.40
40089;BME280;25793;55.706;13.186;2022-12-05T19:31:20;101315.56;;;2.60;86.16
40089;BME280;25793;55.706;13.186;2022-12-05T19:33:51;101306.97;;;2.62;86.11
40089;BME280;25793;55.706;13.186;2022-12-05T19:36:25;101301.88;;;2.59;85.56
40089;BME280;25793;55.706;13.186;2022-12-05T19:38:53;101300.19;;;2.57;86.00
40089;BME280;25793;55.706;13.186;2022-12-05T19:41:25;101295.97;;;2.51;86.18
40089;BME280;25793;55.706;13.186;2022-12-05T19:43:52;101298.47;;;2.57;86.17
40089;BME280;25793;55.706;13.186;2022-12-05T19:46:22;101302.78;;;2.57;85.51
40089;BME280;25793;55.706;13.186;2022-12-05T19:48:54;101294.16;;;2.59;86.68
40089;BME280;25793;55.706;13.186;2022-12-05T19:51:22;101289.00;;;2.61;86.30
40089;BME280;25793;55.706;13.186;2022-12-05T19:53:48;101294.91;;;2.66;86.06
40089;BME280;25793;55.706;13.186;2022-12-05T19:56:17;101298.38;;;2.65;85.78
40089;BME280;25793;55.706;13.186;2022-12-05T19:58:45;101286.31;;;2.68;85.30
40089;BME280;25793;55.706;13.186;2022-12-05T20:01:21;101287.19;;;2.66;85.11